createdAt,value
2022-12-23T00:01:37.578Z,9.50
2022-12-23T00:04:05.511Z,9.40
2022-12-23T00:06:33.210Z,9.50
2022-12-23T00:09:00.877Z,9.40
2022-12-23T00:11:29.929Z,9.40
2022-12-23T00:14:21.110Z,9.50
2022-12-23T00:16:50.071Z,9.60
2022-12-23T00:19:17.839Z,9.60
2022-12-23T00:21:45.583Z,9.60
2022-12-23T00:24:13.241Z,9.50
2022-12-23T00:26:42.229Z,9.60
2022-12-23T00:29:09.880Z,9.70
2022-12-23T00:32:07.028Z,9.80
2022-12-23T00:34:34.729Z,9.80
2022-12-23T00:37:02.372Z,9.80
2022-12-23T00:40:04.295Z,9.80
2022-12-23T00:42:52.845Z,9.80
2022-12-23T00:45:20.529Z,9.70
2022-12-23T00:48:06.539Z,9.80
2022-12-23T00:50:35.978Z,9.80
2022-12-23T00:53:03.611Z,9.70
2022-12-23T00:55:31.392Z,9.60
2022-12-23T00:58:00.409Z,9.70
2022-12-23T01:00:42.202Z,9.60
2022-12-23T01:03:29.752Z,9.70
2022-12-23T01:05:58.617Z,9.70
2022-12-23T01:08:26.614Z,9.80
2022-12-23T01:10:54.402Z,9.80
2022-12-23T01:13:23.405Z,9.80
2022-12-23T01:15:51.064Z,9.90
2022-12-23T01:18:18.995Z,10.00
2022-12-23T01:20:46.676Z,10.20
2022-12-23T01:23:14.334Z,10.30
2022-12-23T01:25:41.987Z,10.40
2022-12-23T01:28:09.654Z,10.40
2022-12-23T01:30:39.336Z,10.50
2022-12-23T01:33:07.023Z,10.60
2022-12-23T01:35:34.685Z,10.70
2022-12-23T01:38:02.347Z,10.70
2022-12-23T01:40:35.064Z,10.80
2022-12-23T01:43:01.783Z,10.80
2022-12-23T01:45:30.091Z,10.80
2022-12-23T01:47:59.978Z,10.90
2022-12-23T01:50:29.041Z,10.80
2022-12-23T01:53:06.528Z,10.80
2022-12-23T01:55:37.249Z,10.90
2022-12-23T01:58:08.347Z,10.90
2022-12-23T02:00:53.956Z,10.80
2022-12-23T02:03:40.740Z,10.80
2022-12-23T02:06:27.470Z,10.80
2022-12-23T02:09:12.476Z,10.70
2022-12-23T02:11:48.578Z,10.60
2022-12-23T02:14:39.132Z,10.40
2022-12-23T02:17:11.089Z,10.30
2022-12-23T02:19:52.595Z,10.30
2022-12-23T02:22:29.126Z,10.10
2022-12-23T02:25:02.541Z,10.20
2022-12-23T02:27:31.752Z,10.10
2022-12-23T02:30:06.516Z,10.10
2022-12-23T02:32:41.456Z,10.20
2022-12-23T02:35:12.678Z,10.10
2022-12-23T02:37:44.382Z,10.10
2022-12-23T02:40:13.901Z,10.00
2022-12-23T02:42:46.198Z,10.00
2022-12-23T02:45:17.188Z,10.00
2022-12-23T02:47:50.127Z,10.10
2022-12-23T02:50:19.635Z,10.10
2022-12-23T02:52:48.447Z,10.00
2022-12-23T02:55:17.646Z,10.00
2022-12-23T02:57:47.145Z,10.10
2022-12-23T03:00:15.965Z,10.00
2022-12-23T03:02:44.479Z,10.00
2022-12-23T03:05:26.100Z,10.10
2022-12-23T03:07:54.341Z,10.10
2022-12-23T03:10:27.847Z,10.00
2022-12-23T03:12:59.488Z,10.10
2022-12-23T03:15:34.217Z,10.10
2022-12-23T03:18:04.769Z,10.10
2022-12-23T03:20:38.193Z,10.10
2022-12-23T03:23:09.201Z,10.10
2022-12-23T03:25:38.812Z,10.20
2022-12-23T03:28:12.100Z,10.10
2022-12-23T03:30:41.985Z,10.10
2022-12-23T03:33:12.768Z,10.00
2022-12-23T03:35:43.415Z,10.00
2022-12-23T03:38:12.517Z,9.90
2022-12-23T03:40:42.520Z,9.80
2022-12-23T03:43:13.444Z,9.80
2022-12-23T03:45:44.330Z,9.80
2022-12-23T03:48:14.597Z,9.60
2022-12-23T03:50:44.087Z,9.70
2022-12-23T03:53:12.911Z,9.60
2022-12-23T03:55:44.595Z,9.60
2022-12-23T03:58:15.203Z,9.60
2022-12-23T04:00:45.688Z,9.60
2022-12-23T04:03:18.496Z,9.60
2022-12-23T04:05:50.822Z,9.70
2022-12-23T04:08:20.396Z,9.60
2022-12-23T04:10:48.236Z,9.50
2022-12-23T04:13:15.943Z,9.50
2022-12-23T04:15:44.157Z,9.40
2022-12-23T04:18:12.258Z,9.40
2022-12-23T04:20:39.997Z,9.30
2022-12-23T04:23:09.030Z,9.20
2022-12-23T04:25:36.685Z,9.20
2022-12-23T04:28:04.758Z,9.20
2022-12-23T04:30:34.672Z,9.20
2022-12-23T04:33:02.748Z,9.30
2022-12-23T04:35:30.473Z,9.30
2022-12-23T04:37:58.109Z,9.40
2022-12-23T04:40:27.115Z,9.40
2022-12-23T04:42:54.793Z,9.50
2022-12-23T04:45:22.542Z,9.30
2022-12-23T04:47:50.179Z,9.30
2022-12-23T04:50:18.208Z,9.10
2022-12-23T04:52:45.943Z,9.10
2022-12-23T04:55:13.618Z,9.10
2022-12-23T04:57:42.678Z,9.00
2022-12-23T05:00:10.980Z,9.10
2022-12-23T05:02:38.663Z,9.10
2022-12-23T05:05:06.870Z,9.10
2022-12-23T05:07:34.544Z,9.20
2022-12-23T05:10:03.344Z,9.20
2022-12-23T05:12:31.522Z,9.30
2022-12-23T05:15:00.509Z,9.40
2022-12-23T05:17:28.158Z,9.50
2022-12-23T05:19:55.804Z,9.50
2022-12-23T05:22:23.491Z,9.40
2022-12-23T05:24:51.175Z,9.40
2022-12-23T05:27:18.860Z,9.30
2022-12-23T05:29:46.505Z,9.20
2022-12-23T05:32:15.478Z,9.30
2022-12-23T05:34:43.146Z,9.20
2022-12-23T05:37:10.764Z,9.10
2022-12-23T05:39:38.434Z,9.00
2022-12-23T05:42:06.476Z,8.90
2022-12-23T05:44:34.128Z,8.90
2022-12-23T05:47:01.951Z,8.90
2022-12-23T05:49:31.124Z,8.80
2022-12-23T05:51:58.752Z,8.80
2022-12-23T05:54:26.466Z,8.80
2022-12-23T05:56:54.400Z,8.80
2022-12-23T05:59:24.403Z,8.70
2022-12-23T06:01:54.406Z,8.60
2022-12-23T06:04:22.265Z,8.60
2022-12-23T06:06:51.283Z,8.50
2022-12-23T06:09:19.011Z,8.40
2022-12-23T06:11:46.690Z,8.40
2022-12-23T06:14:14.389Z,8.40
2022-12-23T06:16:42.153Z,8.40
2022-12-23T06:19:10.021Z,8.40
2022-12-23T06:21:37.697Z,8.40
2022-12-23T06:24:07.584Z,8.40
2022-12-23T06:26:35.951Z,8.40
2022-12-23T06:29:03.654Z,8.40
2022-12-23T06:31:31.369Z,8.40
2022-12-23T06:33:59.048Z,8.30
2022-12-23T06:36:26.940Z,8.30
2022-12-23T06:38:54.598Z,8.40
2022-12-23T06:41:23.629Z,8.40
2022-12-23T06:43:54.424Z,8.40
2022-12-23T06:46:22.500Z,8.40
2022-12-23T06:48:50.210Z,8.50
2022-12-23T06:51:17.906Z,8.50
2022-12-23T06:53:45.578Z,8.50
2022-12-23T06:56:13.282Z,8.50
2022-12-23T06:58:42.263Z,8.50
2022-12-23T07:01:10.328Z,8.60
2022-12-23T07:03:38.274Z,8.60
2022-12-23T07:06:06.232Z,8.60
2022-12-23T07:08:33.899Z,8.70
2022-12-23T07:11:03.246Z,8.70
2022-12-23T07:13:31.017Z,8.70
2022-12-23T07:16:00.232Z,8.80
2022-12-23T07:18:28.297Z,8.90
2022-12-23T07:21:00.239Z,8.80
2022-12-23T07:23:27.903Z,8.90
2022-12-23T07:25:55.671Z,8.90
2022-12-23T07:28:23.601Z,8.90
2022-12-23T07:30:51.309Z,9.00
2022-12-23T07:33:20.299Z,8.90
2022-12-23T07:35:47.981Z,9.00
2022-12-23T07:38:15.601Z,9.00
2022-12-23T07:40:43.256Z,9.00
2022-12-23T07:43:11.095Z,9.00
2022-12-23T07:45:38.761Z,9.00
2022-12-23T07:48:06.713Z,9.10
2022-12-23T07:50:35.944Z,9.10
2022-12-23T07:53:04.112Z,9.10
2022-12-23T07:55:31.773Z,9.20
2022-12-23T07:57:59.543Z,9.20
2022-12-23T08:00:27.175Z,9.30
2022-12-23T08:02:54.867Z,9.30
2022-12-23T08:05:22.924Z,9.20
2022-12-23T08:07:52.206Z,9.30
2022-12-23T08:10:19.958Z,9.40
2022-12-23T08:12:47.617Z,9.40
2022-12-23T08:15:15.393Z,9.40
2022-12-23T08:17:43.048Z,9.50
2022-12-23T08:20:11.088Z,9.50
2022-12-23T08:22:38.772Z,9.60
2022-12-23T08:25:08.200Z,9.60
2022-12-23T08:27:35.918Z,9.70
2022-12-23T08:30:03.604Z,9.70
2022-12-23T08:32:31.232Z,9.70
2022-12-23T08:34:59.000Z,9.60
2022-12-23T08:37:26.647Z,9.70
2022-12-23T08:39:54.351Z,9.60
2022-12-23T08:42:23.342Z,9.60
2022-12-23T08:44:50.983Z,9.50
2022-12-23T08:47:18.636Z,9.50
2022-12-23T08:49:46.310Z,9.50
2022-12-23T08:52:13.945Z,9.40
2022-12-23T08:54:41.587Z,9.50
2022-12-23T08:57:09.331Z,9.50
2022-12-23T08:59:38.769Z,9.50
2022-12-23T09:02:06.532Z,9.60
2022-12-23T09:04:34.327Z,9.60
2022-12-23T09:07:01.988Z,9.50
2022-12-23T09:09:29.885Z,9.50
2022-12-23T09:11:57.648Z,9.60
2022-12-23T09:14:25.359Z,9.60
2022-12-23T09:16:54.392Z,9.70
2022-12-23T09:19:22.108Z,9.70
2022-12-23T09:21:49.767Z,9.80
2022-12-23T09:24:17.411Z,9.90
2022-12-23T09:26:45.165Z,9.90
2022-12-23T09:29:12.812Z,9.90
2022-12-23T09:31:40.555Z,9.90
2022-12-23T09:34:11.575Z,10.00
2022-12-23T09:36:39.231Z,10.00
2022-12-23T09:39:06.926Z,10.00
2022-12-23T09:41:42.725Z,10.10
2022-12-23T09:44:16.020Z,10.10
2022-12-23T09:46:46.367Z,10.20
2022-12-23T09:49:17.498Z,10.20
2022-12-23T09:51:46.241Z,10.20
2022-12-23T09:54:17.285Z,10.20
2022-12-23T09:56:48.326Z,10.30
2022-12-23T09:59:23.740Z,10.30
2022-12-23T10:01:57.218Z,10.30
2022-12-23T10:04:34.793Z,10.30
2022-12-23T10:07:26.142Z,10.30
2022-12-23T10:09:55.471Z,10.30
2022-12-23T10:12:34.401Z,10.30
2022-12-23T10:15:12.634Z,10.30
2022-12-23T10:17:42.518Z,10.30
2022-12-23T10:20:18.123Z,10.30
2022-12-23T10:22:46.654Z,10.30
2022-12-23T10:25:15.659Z,10.30
2022-12-23T10:27:44.779Z,10.30
2022-12-23T10:30:42.552Z,10.30
2022-12-23T10:33:05.383Z,10.40
2022-12-23T10:35:47.228Z,10.40
2022-12-23T10:38:22.181Z,10.40
2022-12-23T10:40:55.488Z,10.40
2022-12-23T10:43:26.499Z,10.50
2022-12-23T10:46:00.121Z,10.40
2022-12-23T10:48:34.723Z,10.40
2022-12-23T10:51:05.439Z,10.30
2022-12-23T10:53:38.142Z,10.20
2022-12-23T10:56:06.340Z,10.10
2022-12-23T10:58:36.211Z,10.10
2022-12-23T11:01:11.795Z,10.00
2022-12-23T11:03:45.063Z,10.00
2022-12-23T11:06:14.188Z,9.90
2022-12-23T11:08:42.592Z,9.90
2022-12-23T11:11:10.286Z,9.90
2022-12-23T11:13:38.880Z,9.90
2022-12-23T11:16:13.992Z,10.00
2022-12-23T11:18:52.681Z,9.90
2022-12-23T11:21:21.742Z,9.90
2022-12-23T11:24:06.311Z,9.90
2022-12-23T11:26:33.997Z,10.00
2022-12-23T11:29:05.501Z,10.10
2022-12-23T11:31:35.392Z,10.10
2022-12-23T11:34:05.238Z,10.10
2022-12-23T11:36:34.635Z,10.10
2022-12-23T11:39:04.254Z,10.10
2022-12-23T11:41:35.242Z,10.00
2022-12-23T11:44:06.017Z,9.90
2022-12-23T11:46:34.468Z,9.90
2022-12-23T11:49:15.992Z,9.90
2022-12-23T11:51:46.133Z,10.00
2022-12-23T11:54:18.264Z,10.00
2022-12-23T11:56:48.500Z,10.00
2022-12-23T11:59:30.328Z,10.10
2022-12-23T12:01:59.280Z,10.20
2022-12-23T12:04:28.043Z,10.30
2022-12-23T12:06:57.323Z,10.30
2022-12-23T12:09:25.686Z,10.30
2022-12-23T12:11:54.561Z,10.30
2022-12-23T12:14:23.829Z,10.30
2022-12-23T12:16:54.647Z,10.20
2022-12-23T12:19:24.994Z,10.30
2022-12-23T12:21:55.519Z,10.20
2022-12-23T12:24:26.458Z,10.20
2022-12-23T12:26:57.512Z,10.20
2022-12-23T12:29:27.904Z,10.30
2022-12-23T12:31:57.732Z,10.30
2022-12-23T12:34:31.032Z,10.30
2022-12-23T12:37:01.200Z,10.40
2022-12-23T12:39:33.682Z,10.40
2022-12-23T12:42:05.744Z,10.40
2022-12-23T12:44:35.432Z,10.50
2022-12-23T12:47:28.121Z,10.50
2022-12-23T12:49:57.975Z,10.50
2022-12-23T12:52:27.090Z,10.60
2022-12-23T12:54:57.986Z,10.60
2022-12-23T12:57:25.909Z,10.60
2022-12-23T13:00:01.656Z,10.70
2022-12-23T13:02:41.172Z,10.70
2022-12-23T13:05:16.909Z,10.70
2022-12-23T13:07:53.543Z,10.70
2022-12-23T13:10:29.195Z,10.70
2022-12-23T13:13:00.427Z,10.60
2022-12-23T13:15:30.534Z,10.60
2022-12-23T13:18:04.475Z,10.60
2022-12-23T13:20:34.595Z,10.50
2022-12-23T13:23:33.799Z,10.50
2022-12-23T13:25:57.762Z,10.50
2022-12-23T13:28:31.234Z,10.60
2022-12-23T13:31:03.729Z,10.60
2022-12-23T13:33:35.461Z,10.70
2022-12-23T13:36:12.750Z,10.70
2022-12-23T13:38:53.198Z,10.70
2022-12-23T13:41:26.643Z,10.80
2022-12-23T13:43:55.992Z,10.80
2022-12-23T13:46:26.416Z,10.90
2022-12-23T13:48:58.504Z,10.90
2022-12-23T13:51:28.540Z,10.90
2022-12-23T13:54:04.120Z,10.80
2022-12-23T13:56:39.535Z,10.80
2022-12-23T13:59:09.648Z,10.80
2022-12-23T14:01:43.398Z,10.70
2022-12-23T14:04:30.934Z,10.70
2022-12-23T14:06:59.472Z,10.70
2022-12-23T14:09:31.278Z,10.80
2022-12-23T14:12:09.095Z,10.80
2022-12-23T14:14:37.671Z,10.80
2022-12-23T14:17:10.038Z,10.80
2022-12-23T14:19:55.601Z,10.70
2022-12-23T14:22:31.349Z,10.70
2022-12-23T14:25:27.525Z,10.70
2022-12-23T14:28:00.537Z,10.80
2022-12-23T14:30:34.639Z,10.80
2022-12-23T14:33:03.448Z,10.80
2022-12-23T14:35:46.056Z,10.80
2022-12-23T14:38:24.380Z,10.70
2022-12-23T14:40:56.476Z,10.70
2022-12-23T14:43:27.018Z,10.70
2022-12-23T14:45:55.704Z,10.70
2022-12-23T14:48:42.244Z,10.70
2022-12-23T14:51:22.899Z,10.80
2022-12-23T14:54:05.477Z,10.80
2022-12-23T14:56:41.939Z,10.80
2022-12-23T14:59:16.766Z,10.90
2022-12-23T15:01:47.436Z,10.90
2022-12-23T15:04:17.572Z,10.90
2022-12-23T15:06:46.101Z,10.90
2022-12-23T15:09:21.811Z,10.80
2022-12-23T15:11:49.508Z,10.90
2022-12-23T15:14:22.713Z,10.90
2022-12-23T15:16:50.444Z,10.90
2022-12-23T15:19:19.718Z,10.90
2022-12-23T15:21:55.650Z,10.80
2022-12-23T15:24:28.185Z,10.90
2022-12-23T15:27:25.149Z,10.80
2022-12-23T15:29:46.061Z,10.80
2022-12-23T15:32:13.828Z,10.80
2022-12-23T15:34:42.086Z,10.90
2022-12-23T15:37:11.362Z,10.80
2022-12-23T15:39:43.643Z,10.90
2022-12-23T15:42:23.897Z,10.90
2022-12-23T15:44:54.803Z,10.90
2022-12-23T15:47:23.991Z,11.00
2022-12-23T15:49:51.701Z,11.00
2022-12-23T15:52:20.825Z,11.00
2022-12-23T15:54:54.053Z,11.00
2022-12-23T15:57:23.131Z,11.00
2022-12-23T15:59:50.905Z,11.00
2022-12-23T16:05:11.445Z,11.10
2022-12-23T16:07:40.562Z,11.10
2022-12-23T16:10:14.121Z,11.10
2022-12-23T16:12:42.168Z,11.10
2022-12-23T16:15:26.420Z,11.10
2022-12-23T16:18:08.973Z,11.10
2022-12-23T16:20:42.580Z,11.10
2022-12-23T16:23:11.546Z,11.10
2022-12-23T16:25:39.495Z,11.10
2022-12-23T16:28:08.550Z,11.10
2022-12-23T16:30:37.190Z,11.10
2022-12-23T16:33:06.854Z,11.10
2022-12-23T16:35:36.294Z,11.10
2022-12-23T16:38:13.319Z,11.10
2022-12-23T16:40:40.994Z,11.20
2022-12-23T16:43:08.668Z,11.10
2022-12-23T16:45:37.080Z,11.10
2022-12-23T16:48:09.504Z,11.10
2022-12-23T16:50:37.291Z,11.10
2022-12-23T16:53:04.945Z,11.10
2022-12-23T16:55:33.929Z,11.10
2022-12-23T16:58:01.842Z,11.10
2022-12-23T17:00:29.492Z,11.00
2022-12-23T17:02:57.274Z,11.00
2022-12-23T17:05:25.332Z,11.00
2022-12-23T17:07:53.048Z,10.90
2022-12-23T17:10:20.755Z,10.90
2022-12-23T17:12:50.242Z,10.90
2022-12-23T17:15:19.198Z,10.90
2022-12-23T17:17:46.937Z,10.90
2022-12-23T17:20:14.677Z,10.90
2022-12-23T17:22:43.522Z,10.90
2022-12-23T17:25:12.328Z,11.00
2022-12-23T17:27:40.061Z,11.00
2022-12-23T17:30:14.544Z,11.00
2022-12-23T17:32:42.497Z,10.90
2022-12-23T17:35:14.463Z,10.90
2022-12-23T17:37:42.138Z,10.90
2022-12-23T17:40:11.450Z,10.80
2022-12-23T17:42:39.196Z,10.80
2022-12-23T17:45:08.232Z,10.80
2022-12-23T17:47:37.210Z,10.80
2022-12-23T17:50:05.419Z,10.80
2022-12-23T17:52:33.215Z,10.80
2022-12-23T17:55:00.865Z,10.70
2022-12-23T17:57:28.548Z,10.60
2022-12-23T17:59:57.111Z,10.60
2022-12-23T18:02:26.287Z,10.60
2022-12-23T18:04:55.345Z,10.50
2022-12-23T18:07:23.031Z,10.50
2022-12-23T18:09:51.771Z,10.50
2022-12-23T18:12:25.074Z,10.40
2022-12-23T18:14:53.029Z,10.40
2022-12-23T18:17:20.692Z,10.30
2022-12-23T18:19:48.415Z,10.30
2022-12-23T18:22:19.711Z,10.30
2022-12-23T18:24:48.794Z,10.20
2022-12-23T18:27:19.753Z,10.20
2022-12-23T18:29:47.923Z,10.20
2022-12-23T18:32:21.282Z,10.10
2022-12-23T18:34:49.353Z,10.10
2022-12-23T18:37:18.547Z,10.10
2022-12-23T18:39:46.357Z,10.00
2022-12-23T18:42:14.533Z,10.00
2022-12-23T18:44:42.423Z,10.00
2022-12-23T18:47:10.290Z,10.00
2022-12-23T18:49:38.448Z,9.90
2022-12-23T18:52:07.317Z,10.00
2022-12-23T18:54:36.315Z,9.90
2022-12-23T18:57:04.316Z,9.90
2022-12-23T18:59:32.978Z,10.00
2022-12-23T19:02:01.038Z,10.00
2022-12-23T19:04:28.810Z,10.00
2022-12-23T19:06:56.981Z,10.00
2022-12-23T19:09:25.143Z,10.00
2022-12-23T19:11:54.584Z,10.00
2022-12-23T19:14:22.407Z,10.10
2022-12-23T19:16:52.320Z,10.10
2022-12-23T19:19:20.517Z,10.20
2022-12-23T19:21:48.235Z,10.10
2022-12-23T19:24:15.934Z,10.20
2022-12-23T19:26:43.904Z,10.20
2022-12-23T19:29:12.923Z,10.30
2022-12-23T19:31:40.575Z,10.30
2022-12-23T19:34:14.337Z,10.30
2022-12-23T19:36:43.020Z,10.30
2022-12-23T19:39:15.819Z,10.30
2022-12-23T19:41:43.565Z,10.30
2022-12-23T19:44:11.239Z,10.30
2022-12-23T19:46:40.307Z,10.30
2022-12-23T19:49:08.055Z,10.30
2022-12-23T19:51:35.678Z,10.30
2022-12-23T19:54:03.591Z,10.40
2022-12-23T19:56:32.414Z,10.40
2022-12-23T19:59:00.062Z,10.50
2022-12-23T20:01:28.162Z,10.50
2022-12-23T20:03:57.574Z,10.50
2022-12-23T20:06:26.594Z,10.60
2022-12-23T20:09:00.106Z,10.60
2022-12-23T20:11:30.489Z,10.60
2022-12-23T20:13:58.434Z,10.60
2022-12-23T20:16:26.506Z,10.60
2022-12-23T20:18:54.305Z,10.60
2022-12-23T20:21:23.737Z,10.60
2022-12-23T20:23:51.492Z,10.60
2022-12-23T20:26:19.545Z,10.60
2022-12-23T20:28:47.364Z,10.60
2022-12-23T20:31:16.415Z,10.60
2022-12-23T20:33:44.403Z,10.60
2022-12-23T20:36:12.987Z,10.60
2022-12-23T20:38:43.048Z,10.60
2022-12-23T20:41:11.320Z,10.60
2022-12-23T20:43:39.044Z,10.70
2022-12-23T20:46:07.397Z,10.70
2022-12-23T20:48:35.831Z,10.70
2022-12-23T20:51:07.033Z,10.70
2022-12-23T20:53:35.205Z,10.70
2022-12-23T20:56:05.285Z,10.70
2022-12-23T20:58:50.513Z,10.70
2022-12-23T21:01:18.308Z,10.70
2022-12-23T21:03:46.011Z,10.70
2022-12-23T21:06:13.887Z,10.70
2022-12-23T21:08:42.932Z,10.70
2022-12-23T21:11:11.965Z,10.80
2022-12-23T21:13:40.469Z,10.90
2022-12-23T21:16:09.246Z,11.00
2022-12-23T21:18:39.942Z,11.00
2022-12-23T21:21:07.630Z,11.10
2022-12-23T21:23:37.112Z,11.10
2022-12-23T21:26:08.875Z,11.10
2022-12-23T21:28:38.087Z,11.10
2022-12-23T21:31:06.286Z,11.10
2022-12-23T21:33:35.397Z,11.10
2022-12-23T21:36:03.127Z,11.10
2022-12-23T21:38:32.196Z,11.00
2022-12-23T21:41:00.499Z,11.00
2022-12-23T21:43:28.327Z,11.00
2022-12-23T21:46:01.179Z,11.00
2022-12-23T21:48:30.958Z,10.90
2022-12-23T21:51:04.411Z,10.80
2022-12-23T21:53:32.956Z,10.80
2022-12-23T21:56:01.488Z,10.80
2022-12-23T21:58:29.252Z,10.80
2022-12-23T22:00:56.929Z,10.80
2022-12-23T22:03:26.460Z,10.80
2022-12-23T22:05:54.310Z,10.80
2022-12-23T22:08:22.071Z,10.80
2022-12-23T22:10:49.708Z,10.80
2022-12-23T22:13:17.377Z,10.80
2022-12-23T22:15:45.029Z,10.70
2022-12-23T22:18:12.671Z,10.60
2022-12-23T22:20:46.355Z,10.50
2022-12-23T22:23:14.228Z,10.50
2022-12-23T22:25:41.876Z,10.50
2022-12-23T22:28:09.541Z,10.40
2022-12-23T22:30:37.189Z,10.40
2022-12-23T22:33:04.878Z,10.40
2022-12-23T22:35:32.540Z,10.40
2022-12-23T22:38:01.581Z,10.40
2022-12-23T22:40:29.245Z,10.50
2022-12-23T22:42:57.021Z,10.60
2022-12-23T22:45:24.760Z,10.70
2022-12-23T22:47:52.577Z,10.80
2022-12-23T22:50:20.397Z,10.90
2022-12-23T22:52:48.116Z,10.90
2022-12-23T22:55:17.172Z,10.90
2022-12-23T22:57:44.957Z,10.90
2022-12-23T23:00:13.057Z,10.90
2022-12-23T23:02:40.748Z,10.90
2022-12-23T23:05:12.918Z,10.90
2022-12-23T23:07:41.040Z,10.90
2022-12-23T23:10:09.458Z,10.90
2022-12-23T23:12:38.427Z,10.80
2022-12-23T23:15:06.441Z,10.80
2022-12-23T23:17:34.243Z,10.80
2022-12-23T23:20:01.886Z,10.80
2022-12-23T23:22:29.580Z,10.80
2022-12-23T23:24:57.253Z,10.70
2022-12-23T23:27:24.899Z,10.70
2022-12-23T23:29:53.906Z,10.70
2022-12-23T23:32:21.656Z,10.70
2022-12-23T23:34:49.345Z,10.70
2022-12-23T23:37:16.972Z,10.70
2022-12-23T23:39:44.624Z,10.70
2022-12-23T23:42:12.310Z,10.70
2022-12-23T23:44:39.930Z,10.70
2022-12-23T23:47:08.976Z,10.70
2022-12-23T23:49:36.604Z,10.80
2022-12-23T23:52:05.281Z,10.80
2022-12-23T23:54:32.920Z,10.80
2022-12-23T23:57:00.571Z,10.80
2022-12-23T23:59:28.203Z,10.80
